Time;durP1;ratioP1;P1;durP2;ratioP2;P2;SDS_P1;SDS_P2;PMS_P1;PMS_P2;Temp;Humidity;BMP_temperature;BMP_pressure;BME280_temperature;BME280_humidity;BME280_pressure;Samples;Min_cycle;Max_cycle;Signal;HPM_P1;HPM_P2
2022/12/26 00:00:37;;;;;;;10.80;6.93;;;10.40;99.90;;;;;;6160504;23;20315;-71
2022/12/26 00:03:04;;;;;;;10.43;7.28;;;10.30;99.90;;;;;;6160738;23;20259;-71
2022/12/26 00:05:37;;;;;;;10.45;6.68;;;10.30;99.90;;;;;;6159169;23;20388;-71
2022/12/26 00:08:04;;;;;;;10.73;5.93;;;10.30;99.90;;;;;;6160556;23;20278;-71
2022/12/26 00:10:31;;;;;;;9.02;6.55;;;10.30;99.90;;;;;;6159099;23;20033;-71
2022/12/26 00:12:59;;;;;;;12.40;6.60;;;10.30;99.90;;;;;;6159126;23;20076;-71
2022/12/26 00:15:27;;;;;;;12.30;7.38;;;10.20;99.90;;;;;;6159819;23;20029;-71
2022/12/26 00:17:54;;;;;;;8.48;5.47;;;10.20;99.90;;;;;;6159254;23;20084;-69
2022/12/26 00:20:21;;;;;;;10.98;5.63;;;10.20;99.90;;;;;;6160141;23;20006;-71
2022/12/26 00:22:49;;;;;;;7.50;5.75;;;10.20;99.90;;;;;;6160240;23;19998;-71
2022/12/26 00:25:16;;;;;;;7.18;4.60;;;10.20;99.90;;;;;;6159416;23;20005;-71
2022/12/26 00:27:44;;;;;;;6.93;5.03;;;10.20;99.90;;;;;;6160427;23;20009;-72
2022/12/26 00:30:12;;;;;;;7.03;4.97;;;10.20;99.90;;;;;;6160306;23;20036;-71
2022/12/26 00:32:39;;;;;;;7.63;4.95;;;10.20;99.90;;;;;;6160289;23;20006;-72
2022/12/26 00:35:07;;;;;;;10.73;4.65;;;10.20;99.90;;;;;;6158770;23;20084;-71
2022/12/26 00:37:34;;;;;;;7.38;5.28;;;10.20;99.90;;;;;;6160345;23;20001;-71
2022/12/26 00:40:02;;;;;;;8.10;5.72;;;10.20;99.90;;;;;;6158838;23;20006;-72
2022/12/26 00:42:29;;;;;;;8.00;4.72;;;10.20;99.90;;;;;;6160847;23;19998;-72
2022/12/26 00:44:56;;;;;;;7.28;4.55;;;10.20;99.90;;;;;;6158851;23;20084;-72
2022/12/26 00:47:24;;;;;;;8.30;5.90;;;10.20;99.90;;;;;;6159006;23;20009;-72
2022/12/26 00:49:52;;;;;;;7.20;4.82;;;10.20;99.90;;;;;;6159932;23;20005;-72
2022/12/26 00:52:19;;;;;;;8.30;5.47;;;10.20;99.90;;;;;;6160849;23;20024;-72
2022/12/26 00:54:46;;;;;;;9.50;5.90;;;10.20;99.90;;;;;;6160305;23;20013;-72
2022/12/26 00:57:14;;;;;;;10.05;6.18;;;10.30;99.90;;;;;;6159001;23;20366;-72
2022/12/26 00:59:41;;;;;;;9.80;6.60;;;10.20;99.90;;;;;;6158427;23;20002;-72
2022/12/26 01:02:36;;;;;;;9.18;6.03;;;10.20;99.90;;;;;;6160753;23;20002;-72
2022/12/26 01:04:55;;;;;;;10.30;6.45;;;10.30;99.90;;;;;;6159644;23;20044;-72
2022/12/26 01:07:23;;;;;;;9.90;6.65;;;10.20;99.90;;;;;;6134455;23;20036;-72
2022/12/26 01:09:50;;;;;;;9.68;6.10;;;10.30;99.90;;;;;;6158653;23;20308;-72
2022/12/26 01:12:17;;;;;;;11.80;7.47;;;10.30;99.90;;;;;;6160022;23;20013;-72
2022/12/26 01:14:44;;;;;;;11.02;6.60;;;10.30;99.90;;;;;;6160570;23;20006;-71
2022/12/26 01:17:12;;;;;;;11.27;7.55;;;10.30;99.90;;;;;;6159964;23;20004;-71
2022/12/26 01:19:39;;;;;;;12.18;7.43;;;10.30;99.90;;;;;;6158557;23;20371;-71
2022/12/26 01:22:06;;;;;;;13.93;8.18;;;10.30;99.90;;;;;;6160645;23;20039;-71
2022/12/26 01:24:33;;;;;;;11.32;7.60;;;10.30;99.90;;;;;;6158256;23;20013;-71
2022/12/26 01:27:00;;;;;;;13.52;8.23;;;10.30;99.90;;;;;;6158586;23;20013;-71
2022/12/26 01:29:28;;;;;;;13.68;8.60;;;10.30;99.90;;;;;;6160168;23;20010;-71
2022/12/26 01:31:55;;;;;;;11.25;7.88;;;10.30;99.90;;;;;;6159820;23;20005;-71
2022/12/26 01:34:23;;;;;;;11.20;8.23;;;10.40;99.90;;;;;;6160809;23;20102;-71
2022/12/26 01:36:52;;;;;;;12.05;8.25;;;10.30;99.90;;;;;;6159844;23;20025;-71
2022/12/26 01:39:20;;;;;;;12.10;7.80;;;10.40;99.90;;;;;;6158552;23;20005;-71
2022/12/26 01:41:47;;;;;;;12.95;8.82;;;10.40;99.90;;;;;;6160557;23;20008;-71
2022/12/26 01:44:51;;;;;;;12.82;8.10;;;10.40;99.90;;;;;;6160006;23;20029;-71
2022/12/26 01:47:21;;;;;;;13.13;8.50;;;10.40;99.90;;;;;;6160507;23;20036;-71
2022/12/26 01:49:53;;;;;;;13.85;8.77;;;10.40;99.90;;;;;;6159723;23;20270;-72
2022/12/26 01:52:40;;;;;;;16.73;10.20;;;10.30;99.90;;;;;;6160633;23;20008;-72
2022/12/26 01:55:10;;;;;;;12.48;8.05;;;10.30;99.90;;;;;;6158379;23;20009;-72
2022/12/26 01:57:42;;;;;;;13.88;8.95;;;10.30;99.90;;;;;;6160508;23;19998;-72
2022/12/26 02:00:10;;;;;;;12.55;7.97;;;10.20;99.90;;;;;;6159785;23;20004;-72
2022/12/26 02:05:34;;;;;;;11.85;8.40;;;10.20;99.90;;;;;;6160071;23;20063;-72
2022/12/26 02:08:09;;;;;;;12.15;7.95;;;10.20;99.90;;;;;;6160417;23;20060;-71
2022/12/26 02:10:48;;;;;;;14.80;8.50;;;10.20;99.90;;;;;;6159731;23;20009;-71
2022/12/26 02:13:17;;;;;;;12.02;7.50;;;10.20;99.90;;;;;;6162455;23;20037;-72
2022/12/26 02:15:46;;;;;;;12.52;7.10;;;10.20;99.90;;;;;;6161456;23;20006;-72
2022/12/26 02:18:13;;;;;;;12.43;8.45;;;10.20;99.90;;;;;;6162203;23;20008;-71
2022/12/26 02:21:00;;;;;;;10.95;7.55;;;10.20;99.90;;;;;;6162135;23;19997;-71
2022/12/26 02:23:48;;;;;;;10.65;7.28;;;10.10;99.90;;;;;;6159960;23;20286;-72
2022/12/26 02:26:49;;;;;;;11.25;7.18;;;10.10;99.90;;;;;;6161510;23;20085;-71
2022/12/26 02:29:30;;;;;;;11.32;7.68;;;10.20;99.90;;;;;;6160115;23;20001;-71
2022/12/26 02:32:09;;;;;;;12.68;8.15;;;10.10;99.90;;;;;;6162120;23;20080;-72
2022/12/26 02:34:53;;;;;;;11.77;8.52;;;10.10;99.90;;;;;;6161933;23;20068;-72
2022/12/26 02:37:32;;;;;;;13.73;8.68;;;10.20;99.90;;;;;;6161360;23;20358;-72
2022/12/26 02:40:27;;;;;;;13.00;8.35;;;10.10;99.90;;;;;;6162191;23;20002;-72
2022/12/26 02:43:03;;;;;;;12.90;8.27;;;10.10;99.90;;;;;;6161321;23;20025;-72
2022/12/26 02:48:47;;;;;;;11.55;8.15;;;10.10;99.90;;;;;;6161373;23;20413;-72
2022/12/26 03:15:01;;;;;;;11.52;7.82;;;10.20;99.90;;;;;;6161244;23;20088;-71
2022/12/26 03:17:41;;;;;;;12.68;8.23;;;10.20;99.90;;;;;;6159797;23;20032;-71
2022/12/26 03:20:27;;;;;;;11.68;7.75;;;10.20;99.90;;;;;;6160932;23;20040;-71
2022/12/26 03:23:02;;;;;;;11.70;8.23;;;10.10;99.90;;;;;;6160625;23;20084;-72
2022/12/26 03:28:36;;;;;;;9.65;7.05;;;10.20;99.90;;;;;;6161434;23;20024;-71
2022/12/26 03:31:11;;;;;;;10.25;7.45;;;10.20;99.90;;;;;;6160823;23;20009;-71
2022/12/26 03:36:30;;;;;;;10.38;7.32;;;10.20;99.90;;;;;;6160798;23;20443;-72
2022/12/26 03:39:18;;;;;;;10.50;7.00;;;10.10;99.90;;;;;;6161401;23;20057;-72
2022/12/26 04:44:23;;;;;;;12.15;7.55;;;9.90;99.90;;;;;;6160560;23;20412;-71
2022/12/26 04:46:52;;;;;;;14.48;7.47;;;9.90;99.90;;;;;;6159840;23;20006;-72
2022/12/26 04:52:09;;;;;;;13.45;7.93;;;9.90;99.90;;;;;;6160206;23;20306;-71
2022/12/26 04:54:37;;;;;;;14.50;8.63;;;9.90;99.90;;;;;;6158668;23;20330;-72
2022/12/26 04:57:05;;;;;;;14.32;7.75;;;9.90;99.90;;;;;;6159557;23;20076;-71
2022/12/26 04:59:33;;;;;;;13.35;8.32;;;9.90;99.90;;;;;;6158687;23;20008;-71
2022/12/26 05:10:26;;;;;;;12.25;8.07;;;9.90;99.90;;;;;;6160322;23;20084;-71
2022/12/26 05:12:54;;;;;;;14.23;8.18;;;9.90;99.90;;;;;;6160736;23;20001;-71
2022/12/26 05:15:21;;;;;;;14.50;8.90;;;9.90;99.90;;;;;;6158540;23;20009;-71
2022/12/26 05:29:08;;;;;;;12.82;8.35;;;9.90;99.90;;;;;;6160283;23;20144;-69
2022/12/26 05:31:35;;;;;;;12.88;7.78;;;9.90;99.90;;;;;;6159918;23;20009;-71
2022/12/26 05:34:06;;;;;;;14.70;9.35;;;9.90;99.90;;;;;;6160583;23;20268;-72
2022/12/26 05:36:41;;;;;;;15.13;8.75;;;9.90;99.90;;;;;;6158606;23;20016;-72
2022/12/26 05:39:09;;;;;;;15.00;9.18;;;9.80;99.90;;;;;;6160899;23;20290;-72
2022/12/26 05:41:37;;;;;;;16.02;9.70;;;9.80;99.90;;;;;;6159794;23;20006;-72
2022/12/26 05:44:05;;;;;;;17.63;9.35;;;9.80;99.90;;;;;;6159968;23;20085;-71
2022/12/26 05:46:32;;;;;;;16.33;9.73;;;9.80;99.90;;;;;;6160457;23;20045;-71
2022/12/26 05:49:00;;;;;;;16.23;9.18;;;9.80;99.90;;;;;;6160412;23;20005;-72
2022/12/26 05:51:27;;;;;;;15.00;9.48;;;9.80;99.90;;;;;;6135962;23;20398;-72
2022/12/26 05:53:54;;;;;;;15.50;9.68;;;9.70;99.90;;;;;;6160659;23;20005;-72
2022/12/26 05:56:22;;;;;;;16.83;9.55;;;9.70;99.90;;;;;;6161195;23;20002;-72
2022/12/26 05:59:00;;;;;;;16.95;10.32;;;9.70;99.90;;;;;;6162377;23;20059;-72
2022/12/26 06:01:29;;;;;;;17.13;9.88;;;9.70;99.90;;;;;;6160324;23;20013;-69
2022/12/26 06:03:58;;;;;;;16.80;9.95;;;9.70;99.90;;;;;;6160463;23;20005;-71
2022/12/26 06:06:25;;;;;;;17.80;9.93;;;9.70;99.90;;;;;;6161660;23;20001;-72
2022/12/26 06:08:55;;;;;;;16.52;10.15;;;9.70;99.90;;;;;;6160355;23;20366;-72
2022/12/26 06:11:24;;;;;;;17.30;9.80;;;9.70;99.90;;;;;;6161612;23;20002;-72
2022/12/26 06:13:52;;;;;;;18.63;10.27;;;9.70;99.90;;;;;;6161489;23;20372;-72
2022/12/26 06:16:19;;;;;;;17.30;10.05;;;9.70;99.90;;;;;;6160215;23;20005;-72
2022/12/26 06:18:47;;;;;;;18.52;11.43;;;9.70;99.90;;;;;;6160111;23;20001;-72
2022/12/26 06:21:18;;;;;;;15.93;10.65;;;9.70;99.90;;;;;;6161836;23;20009;-72
2022/12/26 06:23:46;;;;;;;19.00;10.57;;;9.70;99.90;;;;;;6161923;23;20390;-72
2022/12/26 06:26:13;;;;;;;20.38;10.52;;;9.70;99.90;;;;;;6161385;23;20064;-72
2022/12/26 06:28:42;;;;;;;20.95;11.52;;;9.70;99.90;;;;;;6160169;23;20021;-71
2022/12/26 06:31:13;;;;;;;18.77;10.88;;;9.70;99.90;;;;;;6161321;23;20001;-72
2022/12/26 06:33:41;;;;;;;18.88;11.63;;;9.60;99.90;;;;;;6161547;23;20001;-71
2022/12/26 06:36:14;;;;;;;15.45;10.35;;;9.60;99.90;;;;;;6161212;23;20010;-71
2022/12/26 06:38:42;;;;;;;15.93;8.90;;;9.60;99.90;;;;;;6161667;23;20053;-71
2022/12/26 06:41:11;;;;;;;12.88;8.05;;;9.60;99.90;;;;;;6159972;23;20001;-71
2022/12/26 06:43:39;;;;;;;17.38;7.45;;;9.60;99.90;;;;;;6161992;23;20077;-71
2022/12/26 06:46:07;;;;;;;9.65;6.40;;;9.70;99.90;;;;;;6159949;23;20155;-71
2022/12/26 06:48:38;;;;;;;10.38;6.45;;;9.70;99.90;;;;;;6159855;23;20010;-71
2022/12/26 06:51:10;;;;;;;9.90;6.72;;;9.70;99.90;;;;;;6161543;23;20438;-71
2022/12/26 06:53:38;;;;;;;11.80;7.10;;;9.60;99.90;;;;;;6161949;23;20356;-71
2022/12/26 06:56:16;;;;;;;10.27;6.72;;;9.60;99.90;;;;;;6161007;23;20012;-71
2022/12/26 06:58:44;;;;;;;10.82;7.03;;;9.60;99.90;;;;;;6159462;23;20315;-71
2022/12/26 07:01:16;;;;;;;9.02;5.63;;;9.50;99.90;;;;;;6161042;23;20036;-71
2022/12/26 07:03:45;;;;;;;8.77;5.53;;;9.50;99.90;;;;;;6161577;23;20371;-71
2022/12/26 07:06:30;;;;;;;7.32;5.13;;;9.50;99.90;;;;;;6161097;23;20048;-71
2022/12/26 07:09:00;;;;;;;8.95;5.85;;;9.50;99.90;;;;;;6161189;23;20002;-71
2022/12/26 07:11:33;;;;;;;7.85;4.97;;;9.50;99.90;;;;;;6159707;23;20006;-71
2022/12/26 07:14:00;;;;;;;8.60;5.45;;;9.50;99.90;;;;;;6159597;23;20033;-71
2022/12/26 07:16:28;;;;;;;10.50;6.03;;;9.40;99.90;;;;;;6161009;23;20336;-71
2022/12/26 07:18:56;;;;;;;9.98;6.03;;;9.50;99.90;;;;;;6135236;23;20006;-71
2022/12/26 07:21:25;;;;;;;9.82;6.45;;;9.40;99.90;;;;;;6160977;23;20037;-71
2022/12/26 07:23:53;;;;;;;11.55;6.78;;;9.40;99.90;;;;;;6160794;23;20390;-71
2022/12/26 07:26:21;;;;;;;8.77;6.15;;;9.40;99.90;;;;;;6160828;23;20005;-71
2022/12/26 07:28:53;;;;;;;12.15;7.28;;;9.40;99.90;;;;;;6161712;23;20030;-71
2022/12/26 07:31:22;;;;;;;9.40;6.65;;;9.40;99.90;;;;;;6161181;23;20466;-71
2022/12/26 07:33:50;;;;;;;11.13;7.50;;;9.30;99.90;;;;;;6160591;23;20029;-71
2022/12/26 07:36:17;;;;;;;10.50;6.93;;;9.30;99.90;;;;;;6160802;23;20081;-71
2022/12/26 07:38:46;;;;;;;9.98;7.20;;;9.30;99.90;;;;;;6161285;23;20002;-71
2022/12/26 07:43:58;;;;;;;10.88;6.50;;;9.30;99.90;;;;;;6161149;23;20052;-71
2022/12/26 07:46:26;;;;;;;11.30;7.07;;;9.30;99.90;;;;;;6160224;23;19998;-71
2022/12/26 07:48:53;;;;;;;9.60;7.00;;;9.30;99.90;;;;;;6134910;23;20009;-71
2022/12/26 07:51:21;;;;;;;9.68;6.65;;;9.30;99.90;;;;;;6160535;23;20012;-71
2022/12/26 07:53:48;;;;;;;10.30;7.50;;;9.30;99.90;;;;;;6160443;23;20006;-71
2022/12/26 07:56:15;;;;;;;11.38;8.15;;;9.40;99.90;;;;;;6160491;23;20002;-71
2022/12/26 07:58:42;;;;;;;12.85;8.48;;;9.40;99.90;;;;;;6159307;23;20252;-71
2022/12/26 08:01:09;;;;;;;11.15;8.23;;;9.40;99.90;;;;;;6159261;23;20081;-71
2022/12/26 08:03:36;;;;;;;12.65;8.32;;;9.40;99.90;;;;;;6160534;23;20005;-71
2022/12/26 08:06:04;;;;;;;12.02;8.30;;;9.40;99.90;;;;;;6159222;23;20059;-71
2022/12/26 08:08:31;;;;;;;12.85;8.73;;;9.40;99.90;;;;;;6161385;23;20347;-71
2022/12/26 08:11:03;;;;;;;13.35;8.25;;;9.40;99.90;;;;;;6161113;23;20085;-71
2022/12/26 08:13:31;;;;;;;12.00;7.43;;;9.40;99.90;;;;;;6160647;23;20084;-71
2022/12/26 08:16:04;;;;;;;17.05;8.27;;;9.50;99.90;;;;;;6159019;23;20005;-71
2022/12/26 08:18:31;;;;;;;12.52;8.10;;;9.50;99.90;;;;;;6160369;23;20004;-71
2022/12/26 08:20:59;;;;;;;11.77;7.88;;;9.50;99.90;;;;;;6160309;23;20002;-72
2022/12/26 08:23:27;;;;;;;19.42;8.65;;;9.50;99.90;;;;;;6160219;23;20024;-72
2022/12/26 08:25:54;;;;;;;11.95;8.40;;;9.50;99.90;;;;;;6161025;23;20005;-72
2022/12/26 08:28:21;;;;;;;12.40;9.15;;;9.50;99.90;;;;;;6160223;23;20033;-72
2022/12/26 08:30:49;;;;;;;20.60;13.07;;;9.50;99.90;;;;;;6159792;23;20010;-72
2022/12/26 08:33:16;;;;;;;16.63;8.07;;;9.50;99.90;;;;;;6160346;23;20009;-72
2022/12/26 08:35:43;;;;;;;12.10;8.57;;;9.50;99.90;;;;;;6158850;23;20009;-72
2022/12/26 08:38:11;;;;;;;12.20;6.93;;;9.50;99.90;;;;;;6158981;23;20009;-72
2022/12/26 08:40:39;;;;;;;10.80;8.02;;;9.50;99.90;;;;;;6160147;23;20059;-72
2022/12/26 08:43:06;;;;;;;8.60;6.10;;;9.50;99.90;;;;;;6159057;23;20009;-72
2022/12/26 08:45:34;;;;;;;10.27;7.15;;;9.50;99.90;;;;;;6158847;23;20009;-72
2022/12/26 08:48:03;;;;;;;12.85;7.53;;;9.50;99.90;;;;;;6160559;23;20386;-72
2022/12/26 08:50:30;;;;;;;9.10;7.10;;;9.60;99.90;;;;;;6160043;23;20006;-72
2022/12/26 08:52:58;;;;;;;8.15;6.40;;;9.60;99.90;;;;;;6160656;23;20001;-71
2022/12/26 08:55:25;;;;;;;8.32;6.80;;;9.60;99.90;;;;;;6160701;23;20005;-71
2022/12/26 08:57:52;;;;;;;7.65;6.10;;;9.50;99.90;;;;;;6160756;23;20004;-71
2022/12/26 09:00:22;;;;;;;9.70;5.65;;;9.60;99.90;;;;;;6160116;23;20059;-72
2022/12/26 09:02:50;;;;;;;9.80;6.97;;;9.50;99.90;;;;;;6160738;23;20012;-72
2022/12/26 09:05:18;;;;;;;6.55;4.85;;;9.60;99.90;;;;;;6159987;23;20016;-72
2022/12/26 09:07:46;;;;;;;9.45;5.53;;;9.60;99.90;;;;;;6160442;23;20005;-72
2022/12/26 09:10:14;;;;;;;7.32;5.50;;;9.60;99.90;;;;;;6159063;23;20006;-72
2022/12/26 09:12:41;;;;;;;7.72;5.43;;;9.60;99.90;;;;;;6158658;23;20006;-72
2022/12/26 09:15:08;;;;;;;9.82;5.50;;;9.60;99.90;;;;;;6160553;23;20036;-72
2022/12/26 09:17:36;;;;;;;8.40;5.65;;;9.60;99.90;;;;;;6160253;23;20001;-72
2022/12/26 09:20:04;;;;;;;7.50;4.55;;;9.60;99.90;;;;;;6159787;23;20275;-72
2022/12/26 09:25:18;;;;;;;5.87;4.20;;;9.60;99.90;;;;;;6160239;23;20023;-72
2022/12/26 09:27:47;;;;;;;7.53;4.82;;;9.60;99.90;;;;;;6160769;23;20245;-72
2022/12/26 09:30:15;;;;;;;8.02;4.57;;;9.70;99.90;;;;;;6159903;23;20271;-72
2022/12/26 09:32:42;;;;;;;6.95;4.53;;;9.70;99.90;;;;;;6159949;23;20028;-72
2022/12/26 09:35:09;;;;;;;9.40;4.55;;;9.70;99.90;;;;;;6159740;23;20076;-71
2022/12/26 09:37:37;;;;;;;4.90;3.70;;;9.70;99.90;;;;;;6160545;23;20001;-72
2022/12/26 09:40:05;;;;;;;5.53;3.85;;;9.70;99.90;;;;;;6159869;23;20009;-72
2022/12/26 09:42:59;;;;;;;5.70;4.05;;;9.70;99.90;;;;;;6160026;23;19998;-72
2022/12/26 09:45:49;;;;;;;4.85;3.53;;;9.70;99.90;;;;;;6159736;23;20005;-72
2022/12/26 09:48:52;;;;;;;6.80;3.70;;;9.70;99.90;;;;;;6160456;23;20001;-72
2022/12/26 09:51:19;;;;;;;7.82;3.53;;;9.80;99.90;;;;;;6134472;23;20013;-72
2022/12/26 09:53:47;;;;;;;4.82;3.25;;;9.80;99.90;;;;;;6159962;23;20009;-72
2022/12/26 09:56:20;;;;;;;4.10;3.25;;;9.90;99.90;;;;;;6159727;23;20009;-72
2022/12/26 09:59:01;;;;;;;8.32;3.50;;;9.90;99.90;;;;;;6159876;23;20002;-72
2022/12/26 10:01:34;;;;;;;5.15;3.05;;;10.00;99.90;;;;;;6158457;23;20033;-72
2022/12/26 10:04:23;;;;;;;5.90;2.72;;;10.10;99.90;;;;;;6159904;23;20002;-72
2022/12/26 10:07:26;;;;;;;4.18;2.80;;;10.10;99.90;;;;;;6159656;23;20006;-72
2022/12/26 10:10:12;;;;;;;4.95;2.38;;;10.20;99.90;;;;;;6115332;23;20385;-72
2022/12/26 10:12:52;;;;;;;3.37;2.30;;;10.30;99.90;;;;;;6158641;23;20028;-72
2022/12/26 10:15:29;;;;;;;5.03;2.42;;;10.30;99.90;;;;;;6160301;23;20012;-72
2022/12/26 10:18:23;;;;;;;3.53;2.40;;;10.40;99.90;;;;;;6159769;23;20010;-72
2022/12/26 10:21:00;;;;;;;5.85;2.25;;;10.40;99.90;;;;;;6158345;23;20002;-72
2022/12/26 10:23:44;;;;;;;3.20;2.08;;;10.50;99.90;;;;;;6160545;23;20025;-72
2022/12/26 10:26:22;;;;;;;3.30;1.70;;;10.70;99.90;;;;;;6159526;23;20010;-72
2022/12/26 10:29:00;;;;;;;4.88;2.17;;;10.80;99.90;;;;;;6159686;23;20002;-72
2022/12/26 10:31:42;;;;;;;2.70;1.70;;;10.90;99.90;;;;;;6158337;23;20084;-72
2022/12/26 10:34:24;;;;;;;2.85;1.55;;;10.90;99.90;;;;;;6160513;23;20270;-72
2022/12/26 10:37:00;;;;;;;2.83;1.35;;;11.10;99.90;;;;;;6161306;23;20001;-71
2022/12/26 10:39:41;;;;;;;4.15;2.22;;;11.10;99.90;;;;;;6160270;23;20088;-72
2022/12/26 10:42:18;;;;;;;3.08;1.73;;;11.20;99.90;;;;;;6162832;23;20002;-72
2022/12/26 10:44:46;;;;;;;4.03;2.13;;;11.20;99.90;;;;;;6161936;23;20005;-71
2022/12/26 10:47:27;;;;;;;3.95;2.17;;;11.10;99.90;;;;;;6163130;23;20002;-71
2022/12/26 10:49:58;;;;;;;5.30;1.98;;;11.10;99.90;;;;;;6161169;23;20002;-72
2022/12/26 10:52:31;;;;;;;5.35;2.72;;;11.10;99.90;;;;;;6161119;23;20010;-72
2022/12/26 10:55:00;;;;;;;3.72;2.35;;;11.00;99.90;;;;;;6161013;23;20401;-72
2022/12/26 10:57:31;;;;;;;5.35;3.42;;;10.90;99.90;;;;;;6161716;23;20425;-72
2022/12/26 11:00:00;;;;;;;4.03;1.88;;;10.80;99.90;;;;;;6161091;23;20359;-72
2022/12/26 11:02:31;;;;;;;2.42;1.50;;;10.80;99.90;;;;;;6160688;23;20096;-72
2022/12/26 11:05:11;;;;;;;1.83;1.35;;;10.80;99.90;;;;;;6161706;23;20092;-72
2022/12/26 11:07:54;;;;;;;3.05;1.30;;;10.90;99.90;;;;;;6161286;23;20401;-72
2022/12/26 11:10:25;;;;;;;5.72;1.65;;;10.80;99.90;;;;;;6161058;23;20021;-72
2022/12/26 11:12:55;;;;;;;2.10;1.10;;;10.80;99.90;;;;;;6161735;23;20012;-72
2022/12/26 11:15:39;;;;;;;2.03;1.30;;;10.80;99.90;;;;;;6160960;23;20008;-72
2022/12/26 11:18:21;;;;;;;2.70;1.25;;;10.80;99.90;;;;;;6159782;23;20311;-72
2022/12/26 11:20:50;;;;;;;2.95;1.52;;;10.80;99.90;;;;;;6159630;23;20278;-72
2022/12/26 11:23:25;;;;;;;3.95;1.55;;;10.80;99.90;;;;;;6160753;23;20091;-72
2022/12/26 11:25:55;;;;;;;3.60;1.52;;;10.80;99.90;;;;;;6160918;23;20001;-72
2022/12/26 11:28:40;;;;;;;3.05;1.50;;;10.80;99.90;;;;;;6161130;23;20040;-72
2022/12/26 11:31:18;;;;;;;3.00;1.42;;;10.80;99.90;;;;;;6161573;23;20002;-72
2022/12/26 11:33:46;;;;;;;4.63;1.48;;;10.70;99.90;;;;;;6161504;23;20086;-71
2022/12/26 11:36:21;;;;;;;3.85;1.50;;;10.80;99.90;;;;;;6134798;23;20375;-72
2022/12/26 11:38:58;;;;;;;2.92;1.23;;;10.80;99.90;;;;;;6161984;23;19998;-72
2022/12/26 11:41:31;;;;;;;;;;;10.80;99.90;;;;;;6161220;23;20263;-72
2022/12/26 11:44:04;;;;;;;2.60;1.70;;;10.80;99.90;;;;;;6160485;23;19979;-72
2022/12/26 11:46:38;;;;;;;5.53;2.55;;;10.80;99.90;;;;;;6160646;23;20005;-72
2022/12/26 11:49:15;;;;;;;5.60;1.48;;;10.80;99.90;;;;;;6161087;23;20002;-72
2022/12/26 11:51:48;;;;;;;4.63;1.50;;;10.80;99.90;;;;;;6159338;23;20006;-72
2022/12/26 11:54:34;;;;;;;3.47;1.48;;;10.80;99.90;;;;;;6159449;23;20375;-72
2022/12/26 11:57:03;;;;;;;2.47;1.20;;;10.80;99.90;;;;;;6160731;23;20008;-71
2022/12/26 11:59:31;;;;;;;4.15;1.50;;;10.90;99.90;;;;;;6160485;23;20012;-72
2022/12/26 12:02:30;;;;;;;4.13;1.63;;;10.80;99.90;;;;;;6160575;23;20012;-72
2022/12/26 12:05:12;;;;;;;4.75;1.52;;;10.80;99.90;;;;;;6160600;23;20052;-72
2022/12/26 12:07:58;;;;;;;2.72;1.10;;;10.80;99.90;;;;;;6160554;23;20006;-72
2022/12/26 12:10:46;;;;;;;4.28;1.33;;;10.80;99.90;;;;;;6160363;23;20033;-72
2022/12/26 12:13:40;;;;;;;3.10;1.35;;;10.80;99.90;;;;;;6160587;23;20009;-72
2022/12/26 12:16:31;;;;;;;4.70;1.00;;;10.80;99.90;;;;;;6160615;23;20009;-72
2022/12/26 12:19:23;;;;;;;1.05;0.70;;;10.80;99.90;;;;;;6160548;23;20363;-72
2022/12/26 12:22:12;;;;;;;5.15;1.00;;;10.80;99.90;;;;;;6161008;23;19997;-72
2022/12/26 12:24:53;;;;;;;2.90;1.20;;;10.90;99.90;;;;;;6160165;23;20013;-72
2022/12/26 12:27:30;;;;;;;2.80;1.00;;;10.90;99.90;;;;;;6160370;23;20021;-72
2022/12/26 12:30:19;;;;;;;2.92;1.20;;;10.80;99.90;;;;;;6158956;23;20056;-72
2022/12/26 12:33:07;;;;;;;3.20;0.80;;;10.70;99.90;;;;;;6160502;23;20005;-72
2022/12/26 12:35:53;;;;;;;1.60;0.95;;;10.70;99.90;;;;;;6160076;23;20367;-72
2022/12/26 12:39:08;;;;;;;1.60;0.95;;;10.60;99.90;;;;;;6160927;23;19998;-72
2022/12/26 12:41:57;;;;;;;5.80;1.23;;;10.60;99.90;;;;;;6135958;23;20020;-72
2022/12/26 12:44:51;;;;;;;3.58;0.80;;;10.60;99.90;;;;;;6159036;23;20005;-72
2022/12/26 12:47:29;;;;;;;1.95;0.65;;;10.50;99.90;;;;;;6160886;23;20036;-72
2022/12/26 12:50:06;;;;;;;5.45;1.05;;;10.40;99.90;;;;;;6160762;23;20064;-72
2022/12/26 12:52:49;;;;;;;2.45;1.00;;;10.30;99.90;;;;;;6161810;23;20002;-72
2022/12/26 12:55:54;;;;;;;2.22;1.00;;;10.20;99.90;;;;;;6160459;23;20009;-72
2022/12/26 12:58:57;;;;;;;5.35;1.08;;;10.10;99.90;;;;;;6134794;23;20006;-72
2022/12/26 13:01:48;;;;;;;2.63;0.95;;;10.10;99.90;;;;;;6140066;23;20002;-72
2022/12/26 13:04:27;;;;;;;2.63;0.70;;;10.10;99.90;;;;;;6160174;23;20081;-72
2022/12/26 13:07:04;;;;;;;4.05;1.00;;;10.10;99.90;;;;;;6160024;23;20379;-72
2022/12/26 13:09:44;;;;;;;4.30;0.98;;;10.10;99.90;;;;;;6159904;23;20386;-72
2022/12/26 13:12:22;;;;;;;3.05;1.08;;;10.00;99.90;;;;;;6159912;23;20100;-72
2022/12/26 13:15:20;;;;;;;4.13;1.05;;;10.00;99.90;;;;;;6159838;23;20028;-71
2022/12/26 13:18:33;;;;;;;5.82;1.00;;;9.90;99.90;;;;;;6160618;23;20140;-71
2022/12/26 13:21:06;;;;;;;5.93;1.67;;;9.90;99.90;;;;;;6041593;23;20012;-71
2022/12/26 13:26:51;;;;;;;1.88;1.10;;;10.00;99.90;;;;;;6159798;23;20017;-71
2022/12/26 13:29:38;;;;;;;3.65;1.95;;;10.10;99.90;;;;;;6160777;23;20013;-72
2022/12/26 13:32:18;;;;;;;3.65;1.00;;;10.20;99.90;;;;;;6160555;23;20310;-71
2022/12/26 13:34:46;;;;;;;4.00;1.10;;;10.30;99.90;;;;;;6159602;23;20088;-71
2022/12/26 13:37:37;;;;;;;2.58;1.20;;;10.50;99.90;;;;;;6160764;23;20008;-72
2022/12/26 13:40:11;;;;;;;6.15;1.77;;;10.50;99.90;;;;;;6159817;23;20370;-72
2022/12/26 13:45:57;;;;;;;3.17;0.73;;;10.40;99.90;;;;;;6160189;23;20397;-72
2022/12/26 13:48:31;;;;;;;4.45;1.40;;;10.40;99.90;;;;;;6159943;23;20060;-72
2022/12/26 13:51:04;;;;;;;2.78;1.20;;;10.40;99.90;;;;;;6160491;23;20028;-72
2022/12/26 13:53:39;;;;;;;2.05;1.02;;;10.40;99.90;;;;;;6159793;23;20072;-72
2022/12/26 13:56:19;;;;;;;1.15;0.70;;;10.40;99.90;;;;;;6160326;23;20008;-72
2022/12/26 13:59:20;;;;;;;2.83;0.93;;;10.30;99.90;;;;;;6160735;23;20001;-72
2022/12/26 14:02:15;;;;;;;8.00;1.77;;;10.20;99.90;;;;;;6160494;23;20005;-72
2022/12/26 14:05:24;;;;;;;5.18;1.30;;;10.00;99.90;;;;;;6159794;23;20001;-71
2022/12/26 14:08:14;;;;;;;3.22;1.45;;;9.90;99.90;;;;;;6161183;23;20009;-71
2022/12/26 14:11:04;;;;;;;3.33;1.65;;;9.70;99.90;;;;;;6161631;23;20021;-72
2022/12/26 14:14:07;;;;;;;4.05;1.58;;;9.50;99.90;;;;;;6161649;23;20010;-71
2022/12/26 14:17:08;;;;;;;9.07;3.25;;;9.40;99.90;;;;;;6161583;23;20005;-72
2022/12/26 14:20:14;;;;;;;8.10;2.10;;;9.30;99.90;;;;;;6161498;23;19998;-71
2022/12/26 14:23:03;;;;;;;5.05;2.33;;;9.20;99.90;;;;;;6162212;23;20002;-71
2022/12/26 14:25:36;;;;;;;1.60;0.85;;;9.00;99.90;;;;;;6161495;23;20021;-71
2022/12/26 14:28:16;;;;;;;2.63;1.48;;;8.80;99.90;;;;;;6162130;23;20330;-71
2022/12/26 14:31:13;;;;;;;3.13;1.58;;;8.60;99.90;;;;;;6162143;23;20005;-71
2022/12/26 14:33:44;;;;;;;4.68;1.80;;;8.50;99.90;;;;;;6161251;23;20084;-71
2022/12/26 14:36:34;;;;;;;7.68;3.67;;;8.40;99.90;;;;;;6161191;23;20013;-71
2022/12/26 14:39:39;;;;;;;3.67;1.30;;;8.30;99.90;;;;;;6161404;23;20005;-71
2022/12/26 14:44:57;;;;;;;3.47;1.30;;;8.20;99.90;;;;;;6161316;23;20103;-71
2022/12/26 14:47:45;;;;;;;3.83;1.10;;;8.10;99.90;;;;;;6161318;23;20032;-72
2022/12/26 14:50:35;;;;;;;4.43;1.65;;;8.00;99.90;;;;;;6161218;23;20008;-71
2022/12/26 14:53:27;;;;;;;5.03;1.30;;;7.90;99.90;;;;;;6161810;23;20053;-72
2022/12/26 14:56:17;;;;;;;4.32;1.08;;;7.80;99.90;;;;;;6159763;23;20379;-71
2022/12/26 14:58:49;;;;;;;8.75;1.25;;;7.70;99.90;;;;;;6161910;23;20048;-71
2022/12/26 15:01:20;;;;;;;3.00;0.60;;;7.70;99.90;;;;;;6159884;23;20033;-71
2022/12/26 15:03:50;;;;;;;6.10;0.80;;;7.50;99.90;;;;;;6161922;23;20002;-71
2022/12/26 15:06:20;;;;;;;5.07;1.13;;;7.50;99.90;;;;;;6162408;23;20080;-71
2022/12/26 15:09:23;;;;;;;6.28;0.90;;;7.40;99.90;;;;;;6161470;23;20275;-71
2022/12/26 15:12:29;;;;;;;7.22;2.35;;;7.30;99.90;;;;;;6184303;23;20011;-71
2022/12/26 15:15:31;;;;;;;8.43;1.67;;;7.30;99.90;;;;;;6161088;23;20012;-71
2022/12/26 15:18:14;;;;;;;11.88;2.58;;;7.30;99.90;;;;;;6161005;23;20002;-71
2022/12/26 15:20:45;;;;;;;7.45;0.90;;;7.20;99.90;;;;;;6160600;23;20006;-71
2022/12/26 15:23:34;;;;;;;10.98;1.20;;;7.10;99.90;;;;;;6161159;23;20401;-71
2022/12/26 15:26:38;;;;;;;6.68;1.20;;;7.00;99.90;;;;;;6159608;23;20036;-71
2022/12/26 15:29:41;;;;;;;5.72;1.17;;;6.90;99.90;;;;;;6161307;23;20002;-71
2022/12/26 15:32:33;;;;;;;5.45;1.55;;;6.80;99.90;;;;;;6160828;23;20366;-71
2022/12/26 15:35:12;;;;;;;8.90;2.58;;;6.80;99.90;;;;;;6160993;23;20270;-71
2022/12/26 15:37:59;;;;;;;4.35;1.20;;;6.70;99.90;;;;;;6161450;23;20006;-71
2022/12/26 15:40:58;;;;;;;7.13;0.80;;;6.70;99.90;;;;;;6160858;23;20421;-71
2022/12/26 15:43:49;;;;;;;6.00;1.55;;;6.60;99.90;;;;;;6140503;23;20013;-71
2022/12/26 15:46:34;;;;;;;3.17;0.75;;;6.60;99.90;;;;;;6159599;23;20028;-71